Latest Weather Observations for Yarrawonga

IDN60801

Issued at 5:52 pm EST Tuesday 18 June 2024 (issued every 10 minutes, with the page automatically refreshed every 10 minutes)

About weather observations | Map of weather stations | Latest weather observations for NSW | Other Formats
Station Details ID: 081124 Name: YARRAWONGA Lat: -36.03 Lon: 146.03 Height: 128.9 m
Data from the previous 72 hours. | See also: Recent months at Yarrawonga
Date/Time
EST
Temp
°C
App
Temp
°C
Dew
Point
°C
Rel
Hum
%
Delta-T
°C
Wind Press
QNH
hPa
Press
MSL
hPa
Rain since
9am
mm
Dir  Spd
km/h
Gust
km/h
Spd
kts
Gust
kts
18/05:30pm 7.6 5.3 4.9 83 1.2 SW 6 6 3 3 1017.4 1017.6 0.0
18/05:00pm 9.4 6.9 4.0 69 2.4 SW 6 6 3 3 1017.3 1017.5 0.0
18/04:30pm 11.5 9.4 3.8 59 3.4 SSW 4 4 2 2 1017.2 1017.4 0.0
18/04:00pm 12.0 10.2 3.5 56 3.8 SSW 2 6 1 3 1017.1 1017.3 0.0
18/03:30pm 12.3 10.1 3.5 55 3.9 SSW 4 7 2 4 1017.1 1017.3 0.0
18/03:00pm 12.7 10.5 3.6 54 4.1 WSW 4 13 2 7 1017.2 1017.4 0.0
18/02:30pm 12.2 9.5 2.9 53 4.1 S 6 9 3 5 1017.3 1017.5 0.0
18/02:00pm 12.5 10.3 3.2 53 4.1 WSW 4 7 2 4 1017.6 1017.8 0.0
18/01:30pm 12.3 10.2 4.0 57 3.8 SW 4 7 2 4 1017.8 1018.0 0.0
18/01:00pm 12.3 10.4 4.8 60 3.4 SSE 4 6 2 3 1018.0 1018.2 0.0
18/12:30pm 11.6 10.1 4.8 63 3.1 SE 2 6 1 3 1018.4 1018.6 0.0
18/12:00pm 10.8 8.4 4.3 64 2.9 SE 6 7 3 4 1019.1 1019.3 0.0
18/11:30am 10.1 8.1 4.3 67 2.6 S 4 6 2 3 1019.7 1019.9 0.0
18/11:00am 9.2 7.3 4.8 74 2.0 S 4 6 2 3 1020.0 1020.2 0.0
18/10:30am 7.7 6.2 5.2 84 1.1 SSE 2 6 1 3 1020.2 1020.4 0.0
18/10:00am 6.4 5.1 5.8 96 0.3 SSE 2 6 1 3 1020.2 1020.4 0.0
18/09:30am 4.9 3.4 4.9 100 0.0 WSW 2 4 1 2 1020.2 1020.4 0.0
18/09:00am 4.1 2.8 4.1 100 0.0 CALM 0 0 0 0 1020.2 1020.4 0.0
18/08:30am 1.4 -0.4 1.4 100 0.0 CALM 0 0 0 0 1020.0 1020.2 0.0
18/08:00am -0.5 -2.6 -0.5 100 0.0 CALM 0 0 0 0 1019.5 1019.7 0.0
18/07:30am -1.4 -3.6 -1.4 100 0.0 CALM 0 2 0 1 1019.2 1019.4 0.0
18/07:00am -1.1 -3.2 -1.1 100 0.0 CALM 0 0 0 0 1018.9 1019.1 0.0
18/06:30am -1.6 -4.6 -1.6 100 0.0 SW 4 4 2 2 1019.0 1019.2 0.0
18/06:00am -0.8 -3.7 -0.8 100 0.0 SW 4 4 2 2 1019.0 1019.2 0.0
18/05:30am -0.6 -3.4 -0.6 100 0.0 SW 4 4 2 2 1018.9 1019.1 0.0
18/05:00am -0.4 -2.8 -0.4 100 0.0 SW 2 4 1 2 1019.1 1019.3 0.0
18/04:30am -0.7 -3.5 -0.7 100 0.0 SW 4 4 2 2 1019.2 1019.4 0.0
18/04:00am 0.0 -2.0 0.0 100 0.0 CALM 0 4 0 2 1019.1 1019.3 0.0
18/03:30am -0.4 -2.4 -0.4 100 0.0 CALM 0 0 0 0 1019.1 1019.3 0.0
18/03:00am 0.6 -1.3 0.6 100 0.0 CALM 0 0 0 0 1019.4 1019.6 0.0
18/02:30am 0.9 -1.7 0.9 100 0.0 WSW 4 6 2 3 1019.3 1019.5 0.0
18/02:00am 1.1 -1.9 1.1 100 0.0 WSW 6 6 3 3 1019.5 1019.7 0.0
18/01:30am 1.2 -1.7 1.2 100 0.0 WSW 6 6 3 3 1019.3 1019.5 0.0
18/01:00am 1.7 0.0 1.7 100 0.0 CALM 0 0 0 0 1019.3 1019.5 0.0
18/12:30am 1.0 -1.6 0.9 99 0.0 S 4 4 2 2 1019.4 1019.6 0.0
18/12:00am 2.9 0.2 2.8 99 0.0 SSW 6 6 3 3 1019.7 1019.9 0.0
 
Date/Time
EST
Temp
°C
App
Temp
°C
Dew
Point
°C
Rel
Hum
%
Delta-T
°C
Wind Press
QNH
hPa
Press
MSL
hPa
Rain since
9am
mm
Dir  Spd
km/h
Gust
km/h
Spd
kts
Gust
kts
17/11:30pm 2.3 -0.1 2.3 100 0.0 SSW 4 6 2 3 1019.8 1020.0 0.0
17/11:00pm 2.7 -0.2 2.7 100 0.0 WSW 7 9 4 5 1019.7 1019.9 0.0
17/10:30pm 3.1 0.3 3.1 100 0.0 SW 7 7 4 4 1019.7 1019.9 0.0
17/10:00pm 3.0 0.2 3.0 100 0.0 SW 7 7 4 4 1019.6 1019.8 0.0
17/09:30pm 3.5 0.4 3.4 99 0.0 WSW 9 9 5 5 1019.6 1019.8 0.0
17/09:00pm 4.3 1.3 4.2 99 0.0 WSW 9 9 5 5 1019.5 1019.7 0.0
17/08:30pm 6.3 3.2 5.7 96 0.3 W 11 13 6 7 1019.3 1019.5 0.0
17/08:00pm 6.3 4.0 5.7 96 0.3 W 7 9 4 5 1019.3 1019.5 0.0
17/07:30pm 6.8 4.6 6.1 95 0.3 W 7 9 4 5 1019.1 1019.3 0.0
17/07:00pm 6.5 3.5 6.2 98 0.1 WSW 11 11 6 6 1019.0 1019.2 0.0
17/06:30pm 7.0 4.4 6.1 94 0.4 WSW 9 9 5 5 1018.9 1019.1 0.0
17/06:00pm 8.0 5.7 5.8 86 1.0 W 7 7 4 4 1018.6 1018.8 0.0
17/05:30pm 9.1 6.9 6.0 81 1.4 W 7 9 4 5 1018.5 1018.7 0.0
17/05:00pm 10.5 8.2 5.9 73 2.1 WSW 7 9 4 5 1018.6 1018.8 0.0
17/04:30pm 13.1 10.4 5.8 61 3.5 SW 9 11 5 6 1018.5 1018.7 0.0
17/04:00pm 14.0 10.4 5.1 55 4.2 SW 13 17 7 9 1018.3 1018.5 0.0
17/03:30pm 14.5 10.9 5.0 53 4.5 SW 13 17 7 9 1018.1 1018.3 0.0
17/03:00pm 14.9 11.5 5.7 54 4.4 SW 13 19 7 10 1018.1 1018.3 0.0
17/02:30pm 14.6 10.7 5.4 54 4.4 SW 15 24 8 13 1018.2 1018.4 0.0
17/02:00pm 14.8 11.3 5.3 53 4.5 SW 13 19 7 10 1018.3 1018.5 0.0
17/01:30pm 14.6 11.2 5.7 55 4.3 SW 13 20 7 11 1018.5 1018.7 0.0
17/01:00pm 14.3 11.2 5.7 56 4.1 SSW 11 17 6 9 1018.7 1018.9 0.0
17/12:30pm 13.6 10.3 6.2 61 3.6 SW 13 17 7 9 1018.9 1019.1 0.0
17/12:00pm 12.9 9.2 6.3 64 3.1 SW 15 20 8 11 1019.4 1019.6 0.0
17/11:30am 12.1 8.7 5.9 66 2.9 SW 13 17 7 9 1019.8 1020.0 0.0
17/11:00am 11.2 8.4 6.9 75 2.1 SW 11 17 6 9 1020.1 1020.3 0.0
17/10:30am 10.1 6.4 6.4 78 1.7 SW 15 20 8 11 1020.1 1020.3 0.0
17/10:00am 8.9 5.8 7.2 89 0.8 SW 13 15 7 8 1020.1 1020.3 0.0
17/09:30am 7.6 4.9 7.2 97 0.2 SW 11 15 6 8 1020.0 1020.2 0.0
17/09:00am 6.6 4.1 6.5 99 0.0 SW 9 13 5 7 1019.9 1020.1 0.2
17/08:30am 4.7 2.8 4.7 100 0.0 WSW 4 6 2 3 1019.9 1020.1 0.2
17/08:00am 2.5 -0.2 2.5 100 0.0 WSW 6 7 3 4 1019.8 1020.0 0.2
17/07:30am 2.5 -0.8 2.5 100 0.0 W 9 11 5 6 1019.6 1019.8 0.2
17/07:00am 2.3 -1.0 2.3 100 0.0 WSW 9 11 5 6 1019.4 1019.6 0.2
17/06:30am 2.9 -0.7 2.9 100 0.0 WSW 11 13 6 7 1019.4 1019.6 0.2
17/06:00am 2.3 -1.8 2.3 100 0.0 SW 13 15 7 8 1019.1 1019.3 0.2
17/05:30am 2.0 -1.8 2.0 100 0.0 SW 11 13 6 7 1018.9 1019.1 0.2
17/05:00am 2.1 -2.0 2.1 100 0.0 WSW 13 15 7 8 1018.9 1019.1 0.2
17/04:30am 3.1 -1.6 3.1 100 0.0 WSW 17 19 9 10 1018.9 1019.1 0.2
17/04:00am 2.7 -1.7 2.7 100 0.0 SW 15 17 8 9 1018.8 1019.0 0.0
17/03:30am 2.6 -0.7 2.6 100 0.0 W 9 9 5 5 1018.9 1019.1 0.0
17/03:00am 2.4 -1.7 2.4 100 0.0 WSW 13 13 7 7 1019.0 1019.2 0.0
17/02:30am 2.8 0.1 2.8 100 0.0 WSW 6 7 3 4 1019.1 1019.3 0.0
17/02:00am 3.2 -0.7 3.2 100 0.0 WSW 13 15 7 8 1019.0 1019.2 0.0
17/01:30am 2.5 -1.6 2.5 100 0.0 SW 13 15 7 8 1018.9 1019.1 0.0
17/01:00am 3.3 0.5 3.2 99 0.0 SW 7 9 4 5 1019.1 1019.3 0.0
17/12:30am 3.4 -0.5 3.3 99 0.0 SW 13 15 7 8 1019.3 1019.5 0.0
17/12:00am 4.0 -0.6 3.9 99 0.0 SW 17 19 9 10 1019.4 1019.6 0.0
 
Date/Time
EST
Temp
°C
App
Temp
°C
Dew
Point
°C
Rel
Hum
%
Delta-T
°C
Wind Press
QNH
hPa
Press
MSL
hPa
Rain since
9am
mm
Dir  Spd
km/h
Gust
km/h
Spd
kts
Gust
kts
16/11:30pm 4.1 0.3 4.1 100 0.0 WSW 13 15 7 8 1019.7 1019.9 0.0
16/11:00pm 4.3 0.2 4.2 99 0.0 SW 15 15 8 8 1019.9 1020.1 0.0
16/10:30pm 4.8 1.9 4.5 98 0.1 WSW 9 11 5 6 1020.1 1020.3 0.0
16/10:00pm 5.2 1.9 4.6 96 0.3 WSW 11 13 6 7 1020.0 1020.2 0.0
16/09:30pm 5.3 1.2 4.1 92 0.5 WSW 15 17 8 9 1020.0 1020.2 0.0
16/09:00pm 5.9 1.7 3.7 86 0.9 SW 15 20 8 11 1020.3 1020.5 0.0
16/08:30pm 6.8 2.7 4.1 83 1.2 SSW 15 19 8 10 1020.2 1020.4 0.0
16/08:00pm 7.1 2.6 4.2 82 1.3 SW 17 20 9 11 1020.1 1020.3 0.0
16/07:30pm 7.3 2.2 4.1 80 1.4 SW 20 24 11 13 1019.8 1020.0 0.0
16/07:00pm 8.1 3.0 4.1 76 1.7 SW 20 24 11 13 1019.6 1019.8 0.0
16/06:30pm 8.1 3.0 4.1 76 1.8 WSW 20 24 11 13 1019.3 1019.5 0.0
16/06:00pm 8.7 3.5 3.7 71 2.2 SW 20 26 11 14 1019.2 1019.4 0.0
16/05:30pm 9.8 3.8 3.5 65 2.8 SW 24 32 13 17 1019.1 1019.3 0.0
16/05:00pm 10.7 4.4 3.7 62 3.1 SW 26 32 14 17 1018.7 1018.9 0.0
16/04:30pm 11.6 5.7 3.9 59 3.5 SW 24 33 13 18 1018.7 1018.9 0.0
16/04:00pm 12.5 6.6 4.0 56 3.8 SW 24 33 13 18 1018.5 1018.7 0.0
16/03:30pm 13.0 7.4 3.7 53 4.2 SW 22 30 12 16 1018.5 1018.7 0.0
16/03:00pm 12.9 6.9 3.6 53 4.2 SW 24 30 13 16 1018.5 1018.7 0.0
16/02:30pm 13.0 7.9 4.2 55 4.0 WSW 20 28 11 15 1018.5 1018.7 0.0
16/02:00pm 12.7 7.1 3.6 54 4.1 SW 22 28 12 15 1018.5 1018.7 0.0
16/01:30pm 13.0 6.9 2.6 49 4.6 SSW 24 32 13 17 1018.7 1018.9 0.0
16/01:00pm 12.8 7.5 3.2 52 4.3 SW 20 32 11 17 1019.0 1019.2 0.0
16/12:30pm 12.0 7.4 3.5 56 3.8 SSW 17 24 9 13 1019.4 1019.6 0.0
16/12:00pm 11.7 7.5 3.7 58 3.6 SSW 15 24 8 13 1019.8 1020.0 0.0
16/11:30am 11.1 6.5 3.9 61 3.2 SSW 17 22 9 12 1020.1 1020.3 0.0
16/11:00am 10.5 6.4 4.6 67 2.7 SSW 15 19 8 10 1020.3 1020.5 0.0
16/10:30am 9.3 5.8 5.5 77 1.7 SW 13 17 7 9 1020.6 1020.8 0.0
16/10:00am 8.7 6.2 6.7 87 0.9 SW 9 17 5 9 1020.7 1020.9 0.0
16/09:30am 7.5 4.9 6.1 91 0.6 SSW 9 17 5 9 1020.5 1020.7 0.0
16/09:00am 5.7 3.4 5.7 100 0.0 SW 7 11 4 6 1020.3 1020.5 0.0
16/08:30am 3.4 0.6 3.4 100 0.0 SW 7 9 4 5 1020.1 1020.3 0.0
16/08:00am 1.3 -1.8 1.3 100 0.0 WSW 7 9 4 5 1020.1 1020.3 0.0
16/07:30am 0.3 -3.3 0.3 100 0.0 SW 9 11 5 6 1019.9 1020.1 0.0
16/07:00am 0.4 -2.9 0.4 100 0.0 WSW 7 9 4 5 1019.7 1019.9 0.0
16/06:30am 1.2 -2.3 1.2 100 0.0 WSW 9 9 5 5 1019.6 1019.8 0.0
16/06:00am 1.7 -1.7 1.7 100 0.0 WSW 9 9 5 5 1019.3 1019.5 0.0
16/05:30am 2.0 -1.4 2.0 100 0.0 WSW 9 11 5 6 1019.1 1019.3 0.0
16/05:00am 1.6 -1.8 1.6 100 0.0 SW 9 9 5 5 1019.0 1019.2 0.0
16/04:30am 2.7 0.4 2.7 100 0.0 SSW 4 6 2 3 1018.8 1019.0 0.0
16/04:00am 2.3 -0.7 2.3 100 0.0 SSW 7 9 4 5 1018.8 1019.0 0.0
16/03:30am 2.8 -0.1 2.8 100 0.0 SSW 7 9 4 5 1018.9 1019.1 0.0
16/03:00am 3.5 0.8 3.5 100 0.0 SW 7 9 4 5 1019.0 1019.2 0.0
16/02:30am 3.5 1.3 3.5 100 0.0 SSW 4 6 2 3 1019.2 1019.4 0.0
16/02:00am 3.9 1.4 3.9 100 0.0 SSW 6 7 3 4 1019.2 1019.4 0.0
16/01:30am 4.0 1.4 4.0 100 0.0 SSW 7 9 4 5 1019.0 1019.2 0.0
16/01:00am 4.7 1.8 4.7 100 0.0 SSW 9 13 5 7 1019.1 1019.3 0.0
16/12:30am 4.2 1.6 4.2 100 0.0 SW 7 11 4 6 1019.2 1019.4 0.0
16/12:00am 4.6 1.7 4.6 100 0.0 SSW 9 11 5 6 1019.2 1019.4 0.0
 
Date/Time
EST
Temp
°C
App
Temp
°C
Dew
Point
°C
Rel
Hum
%
Delta-T
°C
Wind Press
QNH
hPa
Press
MSL
hPa
Rain since
9am
mm
Dir  Spd
km/h
Gust
km/h
Spd
kts
Gust
kts
15/11:30pm 4.1 1.1 4.1 100 0.0 SW 9 9 5 5 1019.3 1019.5 0.0
15/11:00pm 4.7 1.8 4.7 100 0.0 SW 9 9 5 5 1019.4 1019.6 0.0
15/10:30pm 5.2 2.8 5.2 100 0.0 SSW 7 9 4 5 1019.3 1019.5 0.0
15/10:00pm 6.0 3.4 6.0 100 0.0 SSW 9 11 5 6 1019.3 1019.5 0.0
15/09:30pm 5.5 2.4 5.5 100 0.0 SW 11 11 6 6 1019.3 1019.5 0.0
15/09:00pm 6.0 3.4 6.0 100 0.0 SW 9 9 5 5 1019.2 1019.4 0.0
15/08:30pm 6.2 3.2 6.2 100 0.0 SW 11 11 6 6 1019.2 1019.4 0.0
15/08:00pm 6.5 4.0 6.5 100 0.0 WSW 9 11 5 6 1019.2 1019.4 0.0
15/07:30pm 7.3 4.6 7.2 99 0.0 WSW 11 13 6 7 1019.3 1019.5 0.0
15/07:00pm 7.3 4.9 7.2 99 0.0 WSW 9 13 5 7 1019.2 1019.4 0.0
15/06:30pm 7.7 5.4 7.6 99 0.0 WSW 9 11 5 6 1019.2 1019.4 0.0
15/06:00pm 8.3 6.1 8.0 98 0.1 WSW 9 11 5 6 1019.1 1019.3 0.0

Other formats

Comma delimited format used in spreadsheet applications
http://www.bom.gov.au/fwo/IDN60801/IDN60801.94862.axf

JavaScript Object Notation format (JSON) in row-major order
http://www.bom.gov.au/fwo/IDN60801/IDN60801.94862.json

Data quality

Most of these data are generated automatically and are frequently updated. Quality checks on data are not normally performed. It is possible for incorrect values to appear. Refer to information at About Latest Weather Observations and please check the disclaimer before using these data.